Time;durP1;ratioP1;P1;durP2;ratioP2;P2;SDS_P1;SDS_P2;PMS_P1;PMS_P2;Temp;Humidity;BMP_temperature;BMP_pressure;BME280_temperature;BME280_humidity;BME280_pressure;Samples;Min_cycle;Max_cycle;Signal;HPM_P1;HPM_P2
2021/06/05 00:00:48;;;;;;;11.45;10.18;;;21.80;70.70;;;;;;1479852;40;20411;-65
2021/06/05 00:02:08;;;;;;;10.90;9.60;;;21.80;70.60;;;;;;1481789;40;20063;-65
2021/06/05 00:03:29;;;;;;;20.10;10.95;;;21.70;70.40;;;;;;1475355;40;20330;-65
2021/06/05 00:04:53;;;;;;;14.52;10.15;;;21.70;70.50;;;;;;1479505;40;20407;-65
2021/06/05 00:06:17;;;;;;;11.25;9.93;;;21.70;70.50;;;;;;1479661;40;20047;-65
2021/06/05 00:07:38;;;;;;;11.05;9.55;;;21.70;70.70;;;;;;1480968;40;20013;-65
2021/06/05 00:08:59;;;;;;;13.52;10.05;;;21.70;70.70;;;;;;1482332;40;20049;-65
2021/06/05 00:10:30;;;;;;;16.67;10.50;;;21.70;70.80;;;;;;1480112;40;20025;-65
2021/06/05 00:11:51;;;;;;;14.20;9.88;;;21.70;71.10;;;;;;1481433;40;20045;-65
2021/06/05 00:13:15;;;;;;;11.93;10.40;;;21.60;70.70;;;;;;1481710;40;20365;-65
2021/06/05 00:14:36;;;;;;;10.68;9.65;;;21.60;71.60;;;;;;1474131;40;20131;-65
2021/06/05 00:15:58;;;;;;;11.35;10.18;;;21.60;71.00;;;;;;1478991;40;20114;-65
2021/06/05 00:17:20;;;;;;;11.52;10.43;;;21.60;71.10;;;;;;1480310;40;20027;-65
2021/06/05 00:18:43;;;;;;;11.77;10.68;;;21.60;71.20;;;;;;1482308;40;20033;-64
2021/06/05 00:20:11;;;;;;;12.27;10.98;;;21.60;71.30;;;;;;1479604;40;20029;-65
2021/06/05 00:21:33;;;;;;;13.25;11.18;;;21.60;71.70;;;;;;1480322;40;20361;-65
2021/06/05 00:22:56;;;;;;;11.82;10.65;;;21.60;71.50;;;;;;1481203;40;20118;-65
2021/06/05 00:24:19;;;;;;;12.15;10.85;;;21.60;71.60;;;;;;1476781;40;20487;-65
2021/06/05 00:25:41;;;;;;;12.10;10.90;;;21.60;71.60;;;;;;1478845;40;20155;-65
2021/06/05 00:27:02;;;;;;;12.32;11.05;;;21.60;71.50;;;;;;1480146;40;20040;-65
2021/06/05 00:28:24;;;;;;;12.40;11.10;;;21.60;72.20;;;;;;1481350;40;20091;-65
2021/06/05 00:29:45;;;;;;;12.35;11.05;;;21.60;71.50;;;;;;1481643;40;20130;-65
2021/06/05 00:31:06;;;;;;;12.25;11.05;;;21.60;71.70;;;;;;1479240;40;20382;-65
2021/06/05 00:32:27;;;;;;;12.70;10.25;;;21.60;71.70;;;;;;1479625;40;20047;-65
2021/06/05 00:33:48;;;;;;;12.60;11.40;;;21.60;71.80;;;;;;1482752;40;20028;-65
2021/06/05 00:35:09;;;;;;;12.25;11.00;;;21.60;71.80;;;;;;1479028;40;20025;-65
2021/06/05 00:36:30;;;;;;;12.38;11.07;;;21.60;71.80;;;;;;1480572;40;20029;-65
2021/06/05 00:37:51;;;;;;;12.93;11.63;;;21.60;71.70;;;;;;1481169;40;20080;-65
2021/06/05 00:39:12;;;;;;;13.68;11.70;;;21.60;71.70;;;;;;1482311;40;20024;-65
2021/06/05 00:40:42;;;;;;;12.32;11.13;;;21.60;71.70;;;;;;1481036;40;20051;-65
2021/06/05 00:42:04;;;;;;;12.07;10.90;;;21.60;71.70;;;;;;1479409;40;20374;-65
2021/06/05 00:43:30;;;;;;;12.10;10.88;;;21.60;71.70;;;;;;1481126;40;20026;-65
2021/06/05 00:44:51;;;;;;;12.00;10.85;;;21.60;72.00;;;;;;1481387;40;20040;-65
2021/06/05 00:46:13;;;;;;;11.05;10.00;;;21.60;71.70;;;;;;1481117;40;20079;-65
2021/06/05 00:47:34;;;;;;;11.98;10.77;;;21.60;71.70;;;;;;1479440;40;20029;-65
2021/06/05 00:48:56;;;;;;;12.32;11.10;;;21.60;71.70;;;;;;1479889;40;20439;-65
2021/06/05 00:50:17;;;;;;;12.57;11.35;;;21.60;71.60;;;;;;1481732;40;20036;-65
2021/06/05 00:51:41;;;;;;;11.38;10.25;;;21.60;71.70;;;;;;1480465;40;20261;-65
2021/06/05 00:53:03;;;;;;;12.35;11.10;;;21.60;71.80;;;;;;1482172;40;20088;-65
2021/06/05 00:54:24;;;;;;;11.48;10.27;;;21.60;71.80;;;;;;1481186;40;20029;-65
2021/06/05 00:55:48;;;;;;;11.35;10.18;;;21.60;71.80;;;;;;1480236;40;20346;-65
2021/06/05 00:57:08;;;;;;;11.13;9.93;;;21.60;72.00;;;;;;1479902;40;20110;-65
2021/06/05 00:58:31;;;;;;;11.98;10.88;;;21.60;71.80;;;;;;1481158;40;20017;-65
2021/06/05 00:59:51;;;;;;;12.25;11.00;;;21.60;72.40;;;;;;1478829;40;20047;-65
2021/06/05 01:01:22;;;;;;;11.40;10.23;;;21.60;71.90;;;;;;1479224;40;20025;-65
2021/06/05 01:02:43;;;;;;;11.90;10.27;;;21.60;72.00;;;;;;1479031;40;20425;-65
2021/06/05 01:04:04;;;;;;;11.43;10.23;;;21.60;71.80;;;;;;1481451;40;20029;-65
2021/06/05 01:05:25;;;;;;;11.18;10.07;;;21.70;71.90;;;;;;1481718;40;20032;-65
2021/06/05 01:07:02;;;;;;;11.85;10.73;;;21.70;71.90;;;;;;1480428;40;20063;-65
2021/06/05 01:08:42;;;;;;;12.88;11.30;;;21.70;72.30;;;;;;1481488;40;20453;-65
2021/06/05 01:10:14;;;;;;;11.27;10.18;;;21.70;72.10;;;;;;1479899;40;20025;-65
2021/06/05 01:11:58;;;;;;;11.57;10.38;;;21.70;72.00;;;;;;1479033;40;20048;-65
2021/06/05 01:13:25;;;;;;;11.15;10.05;;;21.70;72.10;;;;;;1481245;40;20069;-65
2021/06/05 01:14:57;;;;;;;12.00;10.80;;;21.70;71.90;;;;;;1479980;40;20048;-65
2021/06/05 01:16:21;;;;;;;11.38;10.32;;;21.70;71.80;;;;;;1480553;40;20650;-65
2021/06/05 01:17:47;;;;;;;12.20;10.57;;;21.70;71.60;;;;;;1479189;40;20040;-65
2021/06/05 01:19:28;;;;;;;11.85;10.70;;;21.60;71.40;;;;;;1481526;40;20045;-65
2021/06/05 01:21:11;;;;;;;12.18;10.88;;;21.60;71.80;;;;;;1479328;40;20550;-65
2021/06/05 01:22:43;;;;;;;11.52;10.18;;;21.60;71.50;;;;;;1481491;40;20571;-65
2021/06/05 01:24:31;;;;;;;11.68;10.55;;;21.60;71.80;;;;;;1481408;40;20298;-65
2021/06/05 01:26:07;;;;;;;11.15;10.05;;;21.60;71.70;;;;;;1480907;40;20041;-65
2021/06/05 01:27:31;;;;;;;11.18;9.98;;;21.60;71.50;;;;;;1479602;40;20039;-65
2021/06/05 01:28:57;;;;;;;11.68;10.48;;;21.60;71.20;;;;;;1480001;40;20056;-65
2021/06/05 01:30:28;;;;;;;12.52;11.32;;;21.60;71.20;;;;;;1481605;40;20174;-65
2021/06/05 01:31:53;;;;;;;12.40;11.10;;;21.60;71.20;;;;;;1480004;40;20033;-65
2021/06/05 01:33:18;;;;;;;12.13;9.90;;;21.60;71.10;;;;;;1480455;40;20025;-65
2021/06/05 01:34:43;;;;;;;11.57;10.48;;;21.50;71.00;;;;;;1480000;40;20029;-65
2021/06/05 01:36:08;;;;;;;12.10;10.85;;;21.60;71.20;;;;;;1478760;40;20037;-65
2021/06/05 01:37:29;;;;;;;12.93;11.63;;;21.60;71.10;;;;;;1480006;40;20354;-65
2021/06/05 01:38:57;;;;;;;12.13;10.80;;;21.50;70.90;;;;;;1479618;40;20037;-65
2021/06/05 01:40:18;;;;;;;12.50;11.20;;;21.50;71.10;;;;;;1481677;40;20045;-65
2021/06/05 01:41:41;;;;;;;13.63;11.55;;;21.50;71.00;;;;;;1480816;40;20025;-65
2021/06/05 01:43:04;;;;;;;12.52;11.25;;;21.50;71.10;;;;;;1481276;40;20044;-65
2021/06/05 01:44:27;;;;;;;13.25;11.82;;;21.50;71.00;;;;;;1482052;39;20261;-65
2021/06/05 01:45:48;;;;;;;13.30;11.43;;;21.50;71.10;;;;;;1480699;40;20636;-65
2021/06/05 01:47:11;;;;;;;12.63;11.32;;;21.50;71.10;;;;;;1478945;40;20053;-65
2021/06/05 01:48:32;;;;;;;12.20;11.02;;;21.50;71.20;;;;;;1481678;40;20075;-65
2021/06/05 01:49:53;;;;;;;11.85;10.68;;;21.50;71.20;;;;;;1480141;40;20041;-65
2021/06/05 01:51:17;;;;;;;12.43;11.05;;;21.50;71.30;;;;;;1480423;40;20028;-65
2021/06/05 01:52:40;;;;;;;14.18;12.70;;;21.50;71.50;;;;;;1480680;40;20037;-65
2021/06/05 01:54:10;;;;;;;14.27;12.77;;;21.50;71.40;;;;;;1480436;40;20115;-65
2021/06/05 01:55:33;;;;;;;;;;;21.50;71.60;;;;;;1480699;40;20115;-65
2021/06/05 01:57:00;;;;;;;13.63;12.23;;;21.50;71.70;;;;;;1480743;40;19935;-65
2021/06/05 01:58:27;;;;;;;12.73;11.40;;;21.50;71.20;;;;;;1480898;40;20345;-65
2021/06/05 01:59:48;;;;;;;14.57;11.90;;;21.50;71.20;;;;;;1480843;40;20786;-65
2021/06/05 02:01:11;;;;;;;14.60;12.45;;;21.50;71.10;;;;;;1479650;40;20051;-65
2021/06/05 02:02:31;;;;;;;14.48;13.00;;;21.50;71.30;;;;;;1480711;40;20258;-65
2021/06/05 02:03:53;;;;;;;16.73;13.40;;;21.50;71.30;;;;;;1479261;40;20108;-65
2021/06/05 02:05:14;;;;;;;15.50;13.85;;;21.50;71.30;;;;;;1479793;40;20025;-65
2021/06/05 02:06:36;;;;;;;17.02;14.32;;;21.40;71.30;;;;;;1479488;40;20033;-65
2021/06/05 02:07:58;;;;;;;16.33;14.60;;;21.40;71.30;;;;;;1482581;40;20076;-64
2021/06/05 02:09:22;;;;;;;17.63;14.63;;;21.40;71.40;;;;;;1480570;40;20080;-64
2021/06/05 02:10:43;;;;;;;15.68;13.98;;;21.40;71.60;;;;;;1480863;40;20385;-64
2021/06/05 02:12:17;;;;;;;18.40;15.55;;;21.40;71.60;;;;;;1479780;40;20028;-64
2021/06/05 02:14:03;;;;;;;17.50;15.13;;;21.40;72.20;;;;;;1481877;40;20054;-64
2021/06/05 02:15:36;;;;;;;17.70;15.02;;;21.40;72.30;;;;;;1479241;40;20032;-64
2021/06/05 02:16:59;;;;;;;19.80;14.52;;;21.40;71.90;;;;;;1479991;40;20592;-64
2021/06/05 02:18:24;;;;;;;19.77;16.38;;;21.40;71.80;;;;;;1478749;40;20025;-65
2021/06/05 02:19:53;;;;;;;19.27;15.88;;;21.40;71.90;;;;;;1481204;40;20119;-64
2021/06/05 02:21:20;;;;;;;18.92;15.20;;;21.40;72.10;;;;;;1479874;40;20033;-64
2021/06/05 02:22:43;;;;;;;19.05;15.30;;;21.30;72.30;;;;;;1482031;40;20125;-64
2021/06/05 02:24:10;;;;;;;16.92;14.82;;;21.30;72.10;;;;;;1479730;40;20062;-64
2021/06/05 02:25:31;;;;;;;18.38;16.40;;;21.30;72.30;;;;;;1478945;40;20084;-64
2021/06/05 02:26:52;;;;;;;19.90;16.23;;;21.30;72.30;;;;;;1479446;40;20043;-64
2021/06/05 02:28:14;;;;;;;18.27;15.30;;;21.30;72.30;;;;;;1480643;40;20045;-64
2021/06/05 02:29:39;;;;;;;17.67;15.77;;;21.30;72.50;;;;;;1480630;40;20037;-64
2021/06/05 02:31:01;;;;;;;19.15;16.15;;;21.30;72.70;;;;;;1480808;40;20037;-64
2021/06/05 02:32:26;;;;;;;19.15;16.02;;;21.30;72.70;;;;;;1481233;40;20025;-64
2021/06/05 02:33:48;;;;;;;20.08;15.57;;;21.30;72.90;;;;;;1481157;40;20476;-64
2021/06/05 02:35:14;;;;;;;19.65;15.45;;;21.30;72.90;;;;;;1480413;40;20239;-64
2021/06/05 02:36:39;;;;;;;19.42;15.90;;;21.30;73.10;;;;;;1480430;40;20033;-64
2021/06/05 02:38:00;;;;;;;20.98;16.23;;;21.40;73.20;;;;;;1480390;40;20024;-64
2021/06/05 02:39:23;;;;;;;19.13;16.05;;;21.30;72.90;;;;;;1479662;40;20033;-64
2021/06/05 02:40:46;;;;;;;24.60;18.70;;;21.40;73.10;;;;;;1480805;40;20041;-64
2021/06/05 02:42:10;;;;;;;21.70;17.27;;;21.40;73.10;;;;;;1480472;40;20040;-64
2021/06/05 02:43:32;;;;;;;26.00;18.95;;;21.30;73.10;;;;;;1481799;40;20546;-64
2021/06/05 02:44:55;;;;;;;20.45;17.25;;;21.40;73.10;;;;;;1480596;40;20325;-64
2021/06/05 02:46:23;;;;;;;24.15;17.88;;;21.40;73.20;;;;;;1479395;40;20561;-64
2021/06/05 02:48:00;;;;;;;23.00;18.15;;;21.40;73.30;;;;;;1478770;40;20133;-65
2021/06/05 02:49:32;;;;;;;21.05;16.83;;;21.40;73.60;;;;;;1480943;40;20048;-64
2021/06/05 02:50:54;;;;;;;20.02;15.70;;;21.40;73.50;;;;;;1481306;40;20033;-64
2021/06/05 02:52:29;;;;;;;22.75;16.25;;;21.40;73.10;;;;;;1479388;40;20269;-64
2021/06/05 02:53:51;;;;;;;21.42;17.05;;;21.40;73.20;;;;;;1479800;40;20044;-64
2021/06/05 02:55:18;;;;;;;20.55;16.08;;;21.40;73.00;;;;;;1481300;40;20032;-64
2021/06/05 02:56:39;;;;;;;21.02;16.70;;;21.40;73.10;;;;;;1480400;40;20051;-64
2021/06/05 02:58:01;;;;;;;21.90;16.77;;;21.40;73.10;;;;;;1480257;40;20040;-64
2021/06/05 02:59:23;;;;;;;18.35;15.85;;;21.40;73.10;;;;;;1480515;40;20041;-64
2021/06/05 03:00:46;;;;;;;20.27;16.23;;;21.40;73.20;;;;;;1480619;40;20037;-64
2021/06/05 03:02:07;;;;;;;20.77;16.83;;;21.40;73.20;;;;;;1480354;40;20151;-64
2021/06/05 03:03:28;;;;;;;18.92;16.15;;;21.40;73.20;;;;;;1481055;40;20048;-64
2021/06/05 03:04:49;;;;;;;20.38;16.08;;;21.40;73.30;;;;;;1480592;40;20056;-65
2021/06/05 03:06:11;;;;;;;21.45;17.15;;;21.40;73.40;;;;;;1481017;40;20016;-65
2021/06/05 03:07:32;;;;;;;18.98;15.70;;;21.40;73.40;;;;;;1482095;39;20033;-64
2021/06/05 03:08:53;;;;;;;22.52;16.05;;;21.40;73.50;;;;;;1479484;40;20400;-64
2021/06/05 03:10:15;;;;;;;22.23;17.60;;;21.40;73.40;;;;;;1481762;40;20369;-64
2021/06/05 03:11:36;;;;;;;21.75;16.70;;;21.40;73.50;;;;;;1478476;40;20134;-65
2021/06/05 03:13:02;;;;;;;20.98;17.38;;;21.40;73.40;;;;;;1481312;40;20056;-65
2021/06/05 03:14:23;;;;;;;19.98;15.65;;;21.40;73.50;;;;;;1481984;39;20029;-64
2021/06/05 03:15:45;;;;;;;20.83;17.27;;;21.40;73.40;;;;;;1468562;40;20054;-64
2021/06/05 03:17:08;;;;;;;24.92;18.08;;;21.40;73.40;;;;;;1475248;40;20275;-64
2021/06/05 03:18:29;;;;;;;22.00;16.58;;;21.40;73.40;;;;;;1476473;40;20045;-65
2021/06/05 03:19:50;;;;;;;21.85;17.25;;;21.40;73.40;;;;;;1474795;40;20038;-64
2021/06/05 03:21:16;;;;;;;20.33;16.50;;;21.40;73.40;;;;;;1474543;40;20025;-65
2021/06/05 03:22:37;;;;;;;19.80;17.15;;;21.40;73.50;;;;;;1477503;40;20037;-64
2021/06/05 03:23:58;;;;;;;22.80;16.92;;;21.40;73.40;;;;;;1475762;40;20045;-64
2021/06/05 03:25:19;;;;;;;23.65;17.75;;;21.40;73.40;;;;;;1477676;40;20275;-64
2021/06/05 03:26:39;;;;;;;20.70;16.95;;;21.40;73.50;;;;;;1475511;40;20044;-64
2021/06/05 03:28:01;;;;;;;20.98;17.20;;;21.50;73.60;;;;;;1477002;40;20063;-64
2021/06/05 03:29:23;;;;;;;22.40;18.13;;;21.40;73.60;;;;;;1473878;40;20026;-64
2021/06/05 03:30:44;;;;;;;23.95;17.63;;;21.40;73.60;;;;;;1472734;40;20112;-64
2021/06/05 03:32:06;;;;;;;21.00;17.25;;;21.40;73.60;;;;;;1474194;40;20042;-64
2021/06/05 03:33:27;;;;;;;22.65;18.05;;;21.40;73.60;;;;;;1477101;40;20121;-64
2021/06/05 03:34:48;;;;;;;23.73;18.70;;;21.40;73.60;;;;;;1476399;40;20049;-65
2021/06/05 03:36:09;;;;;;;23.92;18.75;;;21.40;73.60;;;;;;1476053;40;20034;-64
2021/06/05 03:37:30;;;;;;;21.25;17.35;;;21.40;73.50;;;;;;1476159;40;20032;-64
2021/06/05 03:38:51;;;;;;;25.58;19.83;;;21.40;73.50;;;;;;1475924;40;20045;-64
2021/06/05 03:40:17;;;;;;;22.63;18.98;;;21.40;73.40;;;;;;1478023;40;20017;-64
2021/06/05 03:41:40;;;;;;;25.70;19.70;;;21.40;73.40;;;;;;1477085;40;20288;-64
2021/06/05 03:43:02;;;;;;;24.17;18.38;;;21.40;73.20;;;;;;1477641;40;20045;-64
2021/06/05 03:44:23;;;;;;;23.80;18.52;;;21.40;73.20;;;;;;1474604;40;20050;-65
2021/06/05 03:45:44;;;;;;;22.50;18.88;;;21.40;73.20;;;;;;1476441;40;20029;-64
2021/06/05 03:47:05;;;;;;;24.67;19.17;;;21.40;73.30;;;;;;1475117;40;20037;-64
2021/06/05 03:48:26;;;;;;;22.98;17.90;;;21.40;73.40;;;;;;1477249;40;20022;-64
2021/06/05 03:49:47;;;;;;;20.75;17.05;;;21.40;73.50;;;;;;1476621;40;20044;-64
2021/06/05 03:51:09;;;;;;;22.88;18.48;;;21.40;73.60;;;;;;1477996;40;20878;-64
2021/06/05 03:52:29;;;;;;;23.95;18.73;;;21.40;73.70;;;;;;1477880;40;20029;-64
2021/06/05 03:53:50;;;;;;;24.65;18.83;;;21.40;73.70;;;;;;1475688;40;20026;-64
2021/06/05 03:55:12;;;;;;;23.38;18.70;;;21.40;73.80;;;;;;1477933;40;20060;-64
2021/06/05 03:56:34;;;;;;;21.88;17.40;;;21.40;73.90;;;;;;1475559;40;20047;-64
2021/06/05 03:58:00;;;;;;;21.30;17.45;;;21.40;73.90;;;;;;1478976;40;20110;-64
2021/06/05 03:59:21;;;;;;;22.65;17.80;;;21.40;74.00;;;;;;1477351;40;20040;-64
2021/06/05 04:00:45;;;;;;;19.95;16.38;;;21.40;74.00;;;;;;1472955;40;20034;-64
2021/06/05 04:02:05;;;;;;;22.92;17.67;;;21.40;74.10;;;;;;1477276;40;20044;-64
2021/06/05 04:03:26;;;;;;;21.20;16.85;;;21.40;73.90;;;;;;1477782;40;20080;-64
2021/06/05 04:04:48;;;;;;;20.88;17.17;;;21.40;73.80;;;;;;1475574;40;20029;-64
2021/06/05 04:06:09;;;;;;;20.17;16.40;;;21.40;73.70;;;;;;1477072;40;20048;-64
2021/06/05 04:07:31;;;;;;;23.08;17.30;;;21.40;73.70;;;;;;1477252;40;20021;-64
2021/06/05 04:08:53;;;;;;;18.67;16.50;;;21.40;73.60;;;;;;1475768;40;20037;-64
2021/06/05 04:10:15;;;;;;;21.45;16.73;;;21.40;73.60;;;;;;1477671;40;20036;-64
2021/06/05 04:11:36;;;;;;;24.27;17.23;;;21.40;73.50;;;;;;1475337;40;20037;-64
2021/06/05 04:12:58;;;;;;;22.15;17.33;;;21.40;73.50;;;;;;1478095;40;20044;-64
2021/06/05 04:14:19;;;;;;;19.67;16.35;;;21.40;73.50;;;;;;1477065;40;20040;-64
2021/06/05 04:15:40;;;;;;;20.58;15.82;;;21.40;73.60;;;;;;1475620;40;20022;-64
2021/06/05 04:17:01;;;;;;;20.60;16.25;;;21.40;73.60;;;;;;1475499;40;20048;-64
2021/06/05 04:18:24;;;;;;;20.52;16.55;;;21.40;73.60;;;;;;1475414;40;20032;-64
2021/06/05 04:19:45;;;;;;;19.70;16.25;;;21.40;73.50;;;;;;1476879;40;20491;-64
2021/06/05 04:21:08;;;;;;;21.02;17.08;;;21.40;73.60;;;;;;1477758;40;20043;-64
2021/06/05 04:22:29;;;;;;;20.02;16.42;;;21.40;73.60;;;;;;1475157;40;20021;-64
2021/06/05 04:23:51;;;;;;;19.77;16.00;;;21.40;73.60;;;;;;1476094;40;20564;-64
2021/06/05 04:25:12;;;;;;;19.98;15.73;;;21.40;73.70;;;;;;1477491;40;20236;-64
2021/06/05 04:26:33;;;;;;;21.02;16.38;;;21.40;73.70;;;;;;1481298;40;20049;-64
2021/06/05 04:27:54;;;;;;;18.27;15.68;;;21.40;73.70;;;;;;1476041;40;20353;-64
2021/06/05 04:29:15;;;;;;;22.35;16.15;;;21.50;73.70;;;;;;1479086;40;20260;-64
2021/06/05 04:30:38;;;;;;;21.15;16.20;;;21.40;73.70;;;;;;1477536;40;20036;-64
2021/06/05 04:32:00;;;;;;;20.20;16.45;;;21.50;73.70;;;;;;1476975;40;20037;-64
2021/06/05 04:33:25;;;;;;;19.08;15.63;;;21.50;73.60;;;;;;1475727;40;20025;-64
2021/06/05 04:34:46;;;;;;;19.85;16.20;;;21.50;73.60;;;;;;1476652;40;20033;-64
2021/06/05 04:36:11;;;;;;;20.60;15.93;;;21.50;73.60;;;;;;1473333;40;20077;-64
2021/06/05 04:37:32;;;;;;;19.83;16.25;;;21.50;73.50;;;;;;1473628;40;20551;-64
2021/06/05 04:38:53;;;;;;;19.30;16.20;;;21.50;73.40;;;;;;1476147;40;20373;-63
2021/06/05 04:40:14;;;;;;;20.60;16.63;;;21.50;73.50;;;;;;1480412;40;20659;-64
2021/06/05 04:41:35;;;;;;;21.15;16.40;;;21.50;73.50;;;;;;1477022;40;20562;-64
2021/06/05 04:42:56;;;;;;;22.00;17.20;;;21.40;73.40;;;;;;1475257;40;20477;-63
2021/06/05 04:44:17;;;;;;;20.35;15.75;;;21.50;73.40;;;;;;1475342;40;20025;-64
2021/06/05 04:45:38;;;;;;;19.48;16.40;;;21.50;73.40;;;;;;1477078;40;20073;-63
2021/06/05 04:46:59;;;;;;;23.08;16.80;;;21.50;73.30;;;;;;1477249;40;20164;-64
2021/06/05 04:48:20;;;;;;;21.25;17.65;;;21.40;73.20;;;;;;1476910;40;20402;-64
2021/06/05 04:49:41;;;;;;;20.30;16.27;;;21.40;73.30;;;;;;1476487;40;20394;-64
2021/06/05 04:51:02;;;;;;;20.70;16.45;;;21.40;73.30;;;;;;1478081;40;20037;-64
2021/06/05 04:52:24;;;;;;;19.92;16.45;;;21.40;73.30;;;;;;1476226;40;20045;-64
2021/06/05 04:53:45;;;;;;;19.77;15.32;;;21.40;73.20;;;;;;1477691;40;20034;-64
2021/06/05 04:55:07;;;;;;;19.05;15.25;;;21.40;73.20;;;;;;1477759;40;20311;-64
2021/06/05 04:56:54;;;;;;;23.85;16.38;;;21.40;73.30;;;;;;1476569;40;20074;-64
2021/06/05 04:58:16;;;;;;;17.95;14.45;;;21.40;73.60;;;;;;1474685;40;20105;-64
2021/06/05 04:59:37;;;;;;;18.83;15.32;;;21.40;73.30;;;;;;1477613;40;20409;-64
2021/06/05 05:00:59;;;;;;;19.40;15.57;;;21.40;73.40;;;;;;1476780;40;20072;-64
2021/06/05 05:02:20;;;;;;;21.15;16.20;;;21.40;73.60;;;;;;1476409;40;20027;-64
2021/06/05 05:03:41;;;;;;;23.55;17.17;;;21.40;73.70;;;;;;1476633;40;20036;-64
2021/06/05 05:05:06;;;;;;;22.63;16.88;;;21.40;73.60;;;;;;1477116;40;20409;-64
2021/06/05 05:06:28;;;;;;;23.98;17.02;;;21.40;73.70;;;;;;1476302;40;20550;-64
2021/06/05 05:07:50;;;;;;;20.08;15.52;;;21.40;73.60;;;;;;1476433;40;20045;-64
2021/06/05 05:09:13;;;;;;;20.33;15.88;;;21.40;73.70;;;;;;1477542;40;20114;-64
2021/06/05 05:10:37;;;;;;;20.55;16.35;;;21.40;73.70;;;;;;1477273;40;20033;-64
2021/06/05 05:11:58;;;;;;;22.42;17.25;;;21.40;73.70;;;;;;1475589;40;20076;-64
2021/06/05 05:13:24;;;;;;;22.15;16.70;;;21.40;73.80;;;;;;1474842;40;20038;-64
2021/06/05 05:14:44;;;;;;;20.88;16.05;;;21.40;73.70;;;;;;1476776;40;20085;-64
2021/06/05 05:16:06;;;;;;;20.70;16.10;;;21.40;73.70;;;;;;1476628;40;20081;-64
2021/06/05 05:17:27;;;;;;;19.20;15.70;;;21.40;73.80;;;;;;1475979;40;20037;-64
2021/06/05 05:18:48;;;;;;;23.58;17.95;;;21.40;73.90;;;;;;1475333;40;20033;-64
2021/06/05 05:20:12;;;;;;;25.17;17.38;;;21.40;74.00;;;;;;1476565;40;20366;-64
2021/06/05 05:21:34;;;;;;;22.52;17.92;;;21.40;74.00;;;;;;1473845;40;20024;-64
2021/06/05 05:22:55;;;;;;;23.08;17.42;;;21.40;74.00;;;;;;1475996;40;20068;-64
2021/06/05 05:24:16;;;;;;;26.83;18.25;;;21.40;74.00;;;;;;1476988;40;20086;-64
2021/06/05 05:25:39;;;;;;;25.05;19.27;;;21.40;74.00;;;;;;1476809;40;20048;-64
2021/06/05 05:27:00;;;;;;;26.52;18.27;;;21.40;74.00;;;;;;1475737;40;20044;-64
2021/06/05 05:28:22;;;;;;;25.40;18.38;;;21.40;73.90;;;;;;1475082;40;20036;-64
2021/06/05 05:29:42;;;;;;;23.83;17.40;;;21.40;74.00;;;;;;1476534;40;20036;-64
2021/06/05 05:31:08;;;;;;;23.35;16.20;;;21.40;74.10;;;;;;1477452;40;20384;-64
2021/06/05 05:32:29;;;;;;;23.73;16.88;;;21.40;74.20;;;;;;1474751;40;20448;-64
2021/06/05 05:33:50;;;;;;;26.45;19.20;;;21.40;74.20;;;;;;1476787;40;20033;-64
2021/06/05 05:35:12;;;;;;;24.52;18.15;;;21.40;74.30;;;;;;1477159;40;20469;-64
2021/06/05 05:36:36;;;;;;;26.75;18.23;;;21.40;74.30;;;;;;1473008;40;20057;-64
2021/06/05 05:37:57;;;;;;;24.48;17.85;;;21.40;74.30;;;;;;1475595;40;20271;-64
2021/06/05 05:39:19;;;;;;;23.67;17.50;;;21.40;74.30;;;;;;1475849;40;20037;-64
2021/06/05 05:40:42;;;;;;;25.48;17.88;;;21.40;74.40;;;;;;1476917;40;20423;-64
2021/06/05 05:42:03;;;;;;;26.08;18.73;;;21.40;74.40;;;;;;1475564;40;20342;-64
2021/06/05 05:43:24;;;;;;;25.73;17.95;;;21.40;74.30;;;;;;1476592;40;20114;-64
2021/06/05 05:44:45;;;;;;;26.50;17.58;;;21.40;74.30;;;;;;1473362;40;20029;-64
2021/06/05 05:46:06;;;;;;;28.42;19.20;;;21.50;74.50;;;;;;1476674;40;20366;-64
2021/06/05 05:47:27;;;;;;;25.52;18.13;;;21.50;74.50;;;;;;1475437;40;20037;-64
2021/06/05 05:48:49;;;;;;;28.95;20.20;;;21.50;75.20;;;;;;1476134;40;20642;-64
2021/06/05 05:50:13;;;;;;;28.08;20.38;;;21.50;74.40;;;;;;1476319;40;20481;-64
2021/06/05 05:51:34;;;;;;;30.02;20.38;;;21.50;74.40;;;;;;1477101;40;20421;-64
2021/06/05 05:52:55;;;;;;;30.55;19.10;;;21.50;74.20;;;;;;1475596;40;20068;-64
2021/06/05 05:54:16;;;;;;;27.13;19.00;;;21.50;74.30;;;;;;1476115;40;20362;-64
2021/06/05 05:55:38;;;;;;;25.73;18.88;;;21.50;74.40;;;;;;1476481;40;20029;-64
2021/06/05 05:56:59;;;;;;;29.63;20.08;;;21.50;74.50;;;;;;1476227;40;20184;-64
2021/06/05 05:58:22;;;;;;;33.13;20.70;;;21.50;74.50;;;;;;1477470;40;20033;-64
2021/06/05 05:59:43;;;;;;;28.30;18.92;;;21.50;74.70;;;;;;1475480;40;20026;-64
2021/06/05 06:01:06;;;;;;;28.40;19.60;;;21.50;74.70;;;;;;1477295;40;20029;-64
2021/06/05 06:02:27;;;;;;;29.02;20.50;;;21.50;74.80;;;;;;1470653;40;20026;-64
2021/06/05 06:03:54;;;;;;;29.05;20.52;;;21.50;74.60;;;;;;1474496;40;20118;-64
2021/06/05 06:05:15;;;;;;;28.42;20.17;;;21.50;74.50;;;;;;1476100;40;20052;-64
2021/06/05 06:06:36;;;;;;;30.67;20.23;;;21.50;74.40;;;;;;1475968;40;20110;-64
2021/06/05 06:07:57;;;;;;;29.40;20.30;;;21.50;74.40;;;;;;1477684;40;20055;-64
2021/06/05 06:09:18;;;;;;;30.35;20.80;;;21.50;74.30;;;;;;1474874;40;20060;-64
2021/06/05 06:10:41;;;;;;;31.35;20.02;;;21.50;74.40;;;;;;1476690;40;20079;-64
2021/06/05 06:12:02;;;;;;;27.58;19.58;;;21.50;74.40;;;;;;1475315;40;20029;-64
2021/06/05 06:13:23;;;;;;;32.17;20.30;;;21.50;74.50;;;;;;1475557;40;20025;-65
2021/06/05 06:14:44;;;;;;;29.73;20.60;;;21.50;74.50;;;;;;1475526;40;20345;-64
2021/06/05 06:16:09;;;;;;;28.13;19.65;;;21.50;74.50;;;;;;1480781;40;20054;-64
2021/06/05 06:17:30;;;;;;;27.45;19.35;;;21.50;74.50;;;;;;1479423;40;20029;-65
2021/06/05 06:18:51;;;;;;;34.83;21.13;;;21.50;74.50;;;;;;1480879;40;20025;-65
2021/06/05 06:20:22;;;;;;;28.90;19.65;;;21.50;74.50;;;;;;1480428;40;20036;-64
2021/06/05 06:21:44;;;;;;;27.10;19.42;;;21.60;74.70;;;;;;1473969;40;20072;-64
2021/06/05 06:23:04;;;;;;;30.27;21.33;;;21.60;74.70;;;;;;1477886;40;20040;-64
2021/06/05 06:24:25;;;;;;;30.80;20.73;;;21.60;74.80;;;;;;1479882;40;20061;-64
2021/06/05 06:25:49;;;;;;;35.17;22.70;;;21.60;74.90;;;;;;1474484;40;20036;-64
2021/06/05 06:27:10;;;;;;;28.30;20.05;;;21.60;74.70;;;;;;1479798;40;20039;-64
2021/06/05 06:28:35;;;;;;;32.60;21.05;;;21.60;74.60;;;;;;1481165;40;20028;-64
2021/06/05 06:29:55;;;;;;;31.35;20.95;;;21.60;74.50;;;;;;1480286;40;20118;-64
2021/06/05 06:31:18;;;;;;;30.83;22.25;;;21.60;74.40;;;;;;1479543;40;20025;-64
2021/06/05 06:32:39;;;;;;;33.13;21.13;;;21.60;74.50;;;;;;1479212;40;20033;-64
2021/06/05 06:34:00;;;;;;;29.10;20.70;;;21.60;74.50;;;;;;1481210;40;20332;-64
2021/06/05 06:35:23;;;;;;;31.23;21.13;;;21.60;74.40;;;;;;1480766;40;20696;-65
2021/06/05 06:36:44;;;;;;;30.10;21.80;;;21.60;74.30;;;;;;1481415;40;20048;-65
2021/06/05 06:38:10;;;;;;;29.70;20.85;;;21.60;74.30;;;;;;1479631;40;20047;-65
2021/06/05 06:39:32;;;;;;;29.55;20.35;;;21.60;74.20;;;;;;1479747;40;20114;-65
2021/06/05 06:40:53;;;;;;;34.08;22.20;;;21.60;74.10;;;;;;1480792;40;20036;-64
2021/06/05 06:42:14;;;;;;;31.30;21.45;;;21.60;74.10;;;;;;1479160;40;20123;-65
2021/06/05 06:43:36;;;;;;;31.42;21.08;;;21.60;74.20;;;;;;1478524;40;20043;-65
2021/06/05 06:44:57;;;;;;;31.63;22.20;;;21.60;74.30;;;;;;1480379;40;20067;-64
2021/06/05 06:46:30;;;;;;;32.70;21.70;;;21.60;74.30;;;;;;1479217;40;20035;-65
2021/06/05 06:47:52;;;;;;;29.23;20.65;;;21.60;74.50;;;;;;1479279;40;20054;-65
2021/06/05 06:49:15;;;;;;;32.65;22.05;;;21.60;74.30;;;;;;1481657;40;20025;-65
2021/06/05 06:50:36;;;;;;;32.65;22.10;;;21.60;74.30;;;;;;1481809;39;20077;-65
2021/06/05 06:51:57;;;;;;;30.30;21.67;;;21.60;74.30;;;;;;1478386;40;20045;-65
2021/06/05 06:53:19;;;;;;;33.15;22.92;;;21.70;74.40;;;;;;1478382;40;20096;-64
2021/06/05 06:54:40;;;;;;;31.73;21.35;;;21.70;74.30;;;;;;1479260;40;20130;-64
2021/06/05 06:56:01;;;;;;;31.92;21.30;;;21.60;74.20;;;;;;1479628;40;20159;-65
2021/06/05 06:57:22;;;;;;;32.10;21.65;;;21.70;74.30;;;;;;1482069;40;20025;-65
2021/06/05 06:58:43;;;;;;;31.73;22.10;;;21.70;74.40;;;;;;1479742;40;20053;-65
2021/06/05 07:00:09;;;;;;;32.30;22.33;;;21.70;74.50;;;;;;1482619;40;20100;-65
2021/06/05 07:01:30;;;;;;;32.80;22.50;;;21.70;74.70;;;;;;1482941;40;20035;-65
2021/06/05 07:02:51;;;;;;;27.92;21.50;;;21.70;74.50;;;;;;1476060;40;20025;-64